Time;durP1;ratioP1;P1;durP2;ratioP2;P2;SDS_P1;SDS_P2;PMS_P1;PMS_P2;Temp;Humidity;BMP_temperature;BMP_pressure;BME280_temperature;BME280_humidity;BME280_pressure;Samples;Min_cycle;Max_cycle;Signal;HPM_P1;HPM_P2
2021/10/08 00:01:05;;;;;;;3.40;2.03;;;;;;;7.93;100.00;102233.53;5293469;28;20083;-80
2021/10/08 00:03:35;;;;;;;3.58;2.03;;;;;;;8.07;100.00;102237.00;5293742;28;20023;-80
2021/10/08 00:06:05;;;;;;;4.07;2.08;;;;;;;7.71;100.00;102231.72;5275146;28;20115;-79
2021/10/08 00:08:35;;;;;;;3.53;1.73;;;;;;;7.84;100.00;102233.50;5294757;28;20370;-80
2021/10/08 00:11:06;;;;;;;3.40;1.85;;;;;;;7.74;100.00;102231.72;5274883;28;20023;-80
2021/10/08 00:13:37;;;;;;;3.05;1.70;;;;;;;7.53;100.00;102231.69;5274890;28;20405;-80
2021/10/08 00:16:07;;;;;;;2.63;1.50;;;;;;;7.73;100.00;102230.00;5275685;28;20034;-80
2021/10/08 00:18:38;;;;;;;2.55;1.50;;;;;;;7.76;100.00;102234.34;5275001;28;20024;-80
2021/10/08 00:21:08;;;;;;;1.60;1.27;;;;;;;7.50;100.00;102234.28;5275030;28;20050;-80
2021/10/08 00:23:39;;;;;;;2.42;1.65;;;;;;;7.26;100.00;102232.47;5274695;28;20486;-80
2021/10/08 00:26:10;;;;;;;1.88;1.30;;;;;;;7.48;100.00;102228.19;5292375;28;20028;-79
2021/10/08 00:28:40;;;;;;;2.30;1.38;;;;;;;7.39;100.00;102230.75;5274719;28;20031;-80
2021/10/08 00:31:10;;;;;;;2.13;1.30;;;;;;;7.53;100.00;102230.81;5292314;28;20533;-80
2021/10/08 00:33:49;;;;;;;3.13;1.30;;;;;;;7.67;100.00;102230.00;5266595;22;20079;-79
2021/10/08 00:36:20;;;;;;;1.75;1.25;;;;;;;7.57;100.00;102228.25;5251837;28;20450;-80
2021/10/08 00:38:52;;;;;;;2.50;1.17;;;;;;;7.43;100.00;102229.94;5265924;28;20031;-80
2021/10/08 00:41:24;;;;;;;1.33;1.08;;;;;;;7.49;100.00;102229.09;5282473;28;20020;-80
2021/10/08 00:43:55;;;;;;;1.55;0.98;;;;;;;7.42;100.00;102217.78;5260277;28;20480;-79
2021/10/08 00:46:27;;;;;;;1.63;1.00;;;;;;;7.43;100.00;102227.31;5245294;28;20112;-80
2021/10/08 00:49:00;;;;;;;1.27;0.98;;;;;;;7.39;100.00;102233.34;5251462;28;20519;-80
2021/10/08 00:51:33;;;;;;;1.60;1.10;;;;;;;7.44;100.00;102226.47;5256481;28;20024;-80
2021/10/08 00:54:06;;;;;;;1.77;1.00;;;;;;;7.49;100.00;102229.94;5256505;28;20028;-79
2021/10/08 00:56:36;;;;;;;1.60;1.00;;;;;;;7.38;100.00;102229.00;5258538;28;20020;-79
2021/10/08 00:59:07;;;;;;;1.58;1.20;;;;;;;7.16;100.00;102233.25;5244858;28;20028;-80
2021/10/08 01:01:40;;;;;;;1.85;1.15;;;;;;;7.04;100.00;102235.78;5254294;28;20395;-79
2021/10/08 01:04:13;;;;;;;2.10;1.30;;;;;;;7.21;100.00;102232.44;5254715;28;20107;-79
2021/10/08 01:06:43;;;;;;;2.00;1.35;;;;;;;7.36;100.00;102227.28;5253966;28;20022;-80
2021/10/08 01:09:17;;;;;;;1.58;1.35;;;;;;;7.29;100.00;102228.13;5272154;28;20206;-79
2021/10/08 01:11:47;;;;;;;3.75;1.58;;;;;;;7.25;100.00;102233.31;5253387;28;20024;-80
2021/10/08 01:14:18;;;;;;;3.33;1.50;;;;;;;7.27;100.00;102234.19;5254938;28;20076;-79
2021/10/08 01:16:48;;;;;;;1.92;1.42;;;;;;;7.13;100.00;102230.66;5254535;28;20379;-79
2021/10/08 01:19:19;;;;;;;3.20;1.17;;;;;;;7.00;100.00;102234.03;5273589;28;20027;-80
2021/10/08 01:21:53;;;;;;;2.05;1.50;;;;;;;6.94;100.00;102240.06;5273882;28;20099;-79
2021/10/08 01:24:24;;;;;;;1.50;1.23;;;;;;;6.76;100.00;102226.13;5254717;28;20081;-80
2021/10/08 01:26:54;;;;;;;5.45;1.45;;;;;;;6.80;100.00;102230.47;5254859;28;20028;-80
2021/10/08 01:29:25;;;;;;;3.13;1.10;;;;;;;7.06;100.00;102232.34;5273076;28;20054;-79
2021/10/08 01:31:55;;;;;;;1.90;1.15;;;;;;;6.99;100.00;102227.09;5254304;28;20539;-79
2021/10/08 01:34:26;;;;;;;2.92;1.30;;;;;;;7.00;100.00;102227.13;5255331;28;20020;-80
2021/10/08 01:36:56;;;;;;;2.47;1.30;;;;;;;6.91;100.00;102231.41;5251877;28;20047;-80
2021/10/08 01:39:26;;;;;;;1.63;1.30;;;;;;;6.97;100.00;102234.88;5273309;28;20024;-80
2021/10/08 01:41:57;;;;;;;1.60;1.30;;;;;;;6.80;100.00;102233.91;5254186;28;20028;-80
2021/10/08 01:44:27;;;;;;;1.83;1.30;;;;;;;6.87;100.00;102235.72;5254581;28;20065;-80
2021/10/08 01:46:57;;;;;;;2.08;1.48;;;;;;;7.09;100.00;102223.72;5253476;28;20105;-79
2021/10/08 01:49:28;;;;;;;1.88;1.40;;;;;;;7.11;100.00;102232.38;5272157;28;20043;-80
2021/10/08 01:52:01;;;;;;;1.90;1.50;;;;;;;6.97;100.00;102229.69;5253771;28;20522;-79
2021/10/08 01:54:32;;;;;;;2.38;1.50;;;;;;;6.97;100.00;102236.63;5273105;28;20060;-79
2021/10/08 01:57:02;;;;;;;3.60;1.52;;;;;;;6.76;100.00;102239.97;5272041;28;20027;-80
2021/10/08 01:59:33;;;;;;;3.08;1.73;;;;;;;6.69;100.00;102240.78;5253605;28;20023;-80
2021/10/08 02:02:04;;;;;;;2.53;1.67;;;;;;;6.49;100.00;102231.13;5254328;28;20349;-80
2021/10/08 02:04:34;;;;;;;2.47;1.60;;;;;;;6.61;100.00;102242.44;5272189;28;20024;-80
2021/10/08 02:07:04;;;;;;;2.20;1.58;;;;;;;6.47;100.00;102245.81;5272342;28;20016;-80
2021/10/08 02:09:35;;;;;;;2.97;1.90;;;;;;;6.45;100.00;102243.19;5254545;28;20081;-80
2021/10/08 02:12:05;;;;;;;2.30;1.60;;;;;;;6.40;100.00;102246.63;5254714;28;20012;-80
2021/10/08 02:14:35;;;;;;;3.50;2.03;;;;;;;6.61;100.00;102245.06;5253944;28;20066;-80
2021/10/08 02:17:06;;;;;;;3.90;1.80;;;;;;;6.57;100.00;102245.88;5270699;28;20023;-80
2021/10/08 02:19:37;;;;;;;2.72;1.70;;;;;;;6.64;100.00;102245.09;5272735;28;20419;-79
2021/10/08 02:22:07;;;;;;;2.33;1.63;;;;;;;6.78;100.00;102245.19;5253364;28;20016;-80
2021/10/08 02:24:37;;;;;;;2.53;1.90;;;;;;;6.90;100.00;102245.28;5268960;28;20031;-80
2021/10/08 02:27:08;;;;;;;2.42;1.50;;;;;;;6.83;100.00;102236.56;5252203;28;20015;-79
2021/10/08 02:29:38;;;;;;;2.20;1.60;;;;;;;6.80;100.00;102241.72;5271049;28;20040;-80
2021/10/08 02:32:09;;;;;;;2.40;1.50;;;;;;;6.96;100.00;102242.69;5265890;28;20100;-79
2021/10/08 02:34:39;;;;;;;2.40;1.50;;;;;;;6.69;100.00;102245.09;5250096;28;20526;-80
2021/10/08 02:37:09;;;;;;;2.30;1.42;;;;;;;6.58;100.00;102252.81;5250015;28;20082;-79
2021/10/08 02:39:40;;;;;;;2.70;1.60;;;;;;;6.58;100.00;102251.97;5240292;28;20027;-80
2021/10/08 02:42:10;;;;;;;1.80;1.40;;;;;;;6.46;100.00;102257.06;5240954;28;20029;-80
2021/10/08 02:44:40;;;;;;;3.13;1.80;;;;;;;6.47;100.00;102248.41;5250275;28;20556;-80
2021/10/08 02:47:10;;;;;;;3.25;1.67;;;;;;;6.61;100.00;102254.59;5240890;28;20016;-80
2021/10/08 02:49:41;;;;;;;2.38;1.50;;;;;;;6.61;100.00;102252.84;5240929;28;20495;-80
2021/10/08 02:52:11;;;;;;;2.05;1.30;;;;;;;6.63;100.00;102252.88;5231952;28;20043;-80
2021/10/08 02:54:41;;;;;;;2.30;1.60;;;;;;;6.56;100.00;102253.69;5239976;28;20035;-79
2021/10/08 02:57:12;;;;;;;3.92;1.80;;;;;;;6.47;100.00;102243.22;5232877;28;20024;-80
2021/10/08 02:59:42;;;;;;;3.47;2.03;;;;;;;6.36;100.00;102247.44;5251906;28;20044;-79
2021/10/08 03:02:12;;;;;;;1.98;1.58;;;;;;;6.28;100.00;102251.72;5239017;28;20046;-79
2021/10/08 03:04:43;;;;;;;2.25;1.55;;;;;;;6.25;100.00;102246.50;5238867;28;20111;-80
2021/10/08 03:07:13;;;;;;;2.50;1.60;;;;;;;6.22;100.00;102246.50;5242323;28;20020;-80
2021/10/08 03:09:43;;;;;;;3.00;1.80;;;;;;;6.21;100.00;102249.91;5241552;28;20066;-80
2021/10/08 03:12:14;;;;;;;2.33;1.65;;;;;;;6.40;100.00;102246.63;5252405;28;20031;-80
2021/10/08 03:14:44;;;;;;;2.85;1.60;;;;;;;6.61;100.00;102249.38;5251493;28;20021;-80
2021/10/08 03:17:14;;;;;;;3.08;2.00;;;;;;;6.31;100.00;102244.84;5242185;28;20025;-80
2021/10/08 03:19:45;;;;;;;3.00;2.10;;;;;;;6.22;100.00;102246.50;5242578;28;20032;-80
2021/10/08 03:22:15;;;;;;;2.58;1.90;;;;;;;6.45;100.00;102252.72;5242947;28;20032;-80
2021/10/08 03:24:45;;;;;;;2.55;1.73;;;;;;;6.47;100.00;102249.31;5242338;28;20415;-80
2021/10/08 03:27:16;;;;;;;2.67;1.77;;;;;;;6.36;100.00;102252.63;5251175;28;20029;-80
2021/10/08 03:29:46;;;;;;;2.90;1.90;;;;;;;6.17;100.00;102253.34;5239689;28;20028;-80
2021/10/08 03:32:16;;;;;;;2.85;1.80;;;;;;;6.34;100.00;102247.47;5241350;28;20024;-80
2021/10/08 03:34:47;;;;;;;3.30;1.95;;;;;;;6.18;100.00;102249.88;5238403;28;20028;-80
2021/10/08 03:37:19;;;;;;;3.92;1.80;;;;;;;6.13;100.00;102246.38;5251507;28;20024;-79
2021/10/08 03:39:50;;;;;;;2.33;1.75;;;;;;;6.06;100.00;102252.41;5241305;28;20036;-80
2021/10/08 03:42:21;;;;;;;2.40;1.60;;;;;;;6.28;100.00;102256.91;5244230;28;20025;-80
2021/10/08 03:44:58;;;;;;;3.10;2.15;;;;;;;6.06;100.00;102255.00;5244385;28;20028;-80
2021/10/08 03:47:38;;;;;;;2.50;1.77;;;;;;;6.27;100.00;102260.38;5241869;28;20017;-80
2021/10/08 03:50:11;;;;;;;3.63;2.08;;;;;;;5.86;100.00;102259.97;5251024;28;20021;-80
2021/10/08 03:52:41;;;;;;;4.15;2.22;;;;;;;5.89;100.00;102256.53;5241309;28;20553;-80
2021/10/08 03:55:12;;;;;;;3.03;2.17;;;;;;;6.03;100.00;102249.75;5249461;28;20040;-80
2021/10/08 03:57:42;;;;;;;3.13;2.00;;;;;;;5.92;100.00;102261.75;5256257;28;20020;-80
2021/10/08 04:00:13;;;;;;;11.32;2.30;;;;;;;5.90;100.00;102253.09;5239638;28;20107;-81
2021/10/08 04:02:44;;;;;;;2.90;2.08;;;;;;;5.98;100.00;102264.41;5240641;28;20024;-80
2021/10/08 04:05:18;;;;;;;2.90;2.00;;;;;;;5.88;100.00;102252.22;5231911;28;20123;-81
2021/10/08 04:07:48;;;;;;;3.88;2.17;;;;;;;5.82;100.00;102252.13;5237282;28;20113;-80
2021/10/08 04:10:18;;;;;;;3.30;2.40;;;;;;;6.00;100.00;102248.00;5250065;28;20048;-81
2021/10/08 04:12:48;;;;;;;3.47;2.47;;;;;;;5.83;100.00;102256.47;5250219;28;20040;-80
2021/10/08 04:15:19;;;;;;;4.03;3.00;;;;;;;5.85;100.00;102254.75;5250606;28;20024;-80
2021/10/08 04:17:49;;;;;;;3.58;2.63;;;;;;;5.99;100.00;102260.97;5250578;28;20041;-79
2021/10/08 04:20:20;;;;;;;3.83;2.40;;;;;;;5.80;100.00;102264.22;5250066;28;20074;-81
2021/10/08 04:22:50;;;;;;;3.83;2.75;;;;;;;5.80;100.00;102262.50;5250759;28;20111;-80
2021/10/08 04:25:21;;;;;;;4.35;2.38;;;;;;;5.99;100.00;102276.53;5234827;28;20025;-81
2021/10/08 04:27:51;;;;;;;3.38;2.15;;;;;;;6.18;100.00;102268.94;5239777;28;20666;-80
2021/10/08 04:30:21;;;;;;;3.80;2.28;;;;;;;6.35;100.00;102264.78;5236066;28;20043;-81
2021/10/08 04:32:52;;;;;;;3.45;2.10;;;;;;;6.53;100.00;102267.50;5236975;28;20025;-80
2021/10/08 04:35:22;;;;;;;2.90;1.98;;;;;;;6.21;100.00;102270.69;5242647;28;20038;-80
2021/10/08 04:37:52;;;;;;;3.17;2.20;;;;;;;6.01;100.00;102273.09;5255256;28;20028;-80
2021/10/08 04:40:23;;;;;;;5.20;2.20;;;;;;;5.76;100.00;102283.16;5259396;28;20039;-81
2021/10/08 04:42:53;;;;;;;2.95;2.05;;;;;;;5.91;100.00;102280.78;5240947;28;20032;-81
2021/10/08 04:45:23;;;;;;;3.30;2.20;;;;;;;6.14;100.00;102271.50;5240076;28;20044;-81
2021/10/08 04:47:54;;;;;;;3.65;2.10;;;;;;;6.21;100.00;102283.66;5262357;28;20529;-80
2021/10/08 04:50:25;;;;;;;3.70;2.20;;;;;;;6.20;100.00;102289.72;5256916;28;20055;-81
2021/10/08 04:52:55;;;;;;;2.92;2.10;;;;;;;6.25;100.00;102282.84;5260087;28;20067;-80
2021/10/08 04:55:26;;;;;;;2.78;2.05;;;;;;;6.32;100.00;102288.13;5243190;28;20028;-81
2021/10/08 04:57:56;;;;;;;3.40;2.15;;;;;;;6.29;100.00;102289.81;5250338;28;20286;-81
2021/10/08 05:00:37;;;;;;;3.33;2.00;;;;;;;6.29;100.00;102300.19;5268173;28;20031;-81
2021/10/08 05:03:26;;;;;;;2.80;1.98;;;;;;;5.96;100.00;102302.44;5249794;28;20023;-81
2021/10/08 05:06:07;;;;;;;3.10;2.28;;;;;;;5.77;100.00;102303.06;5268861;28;20032;-80
2021/10/08 05:08:37;;;;;;;3.30;2.20;;;;;;;5.80;100.00;102310.91;5267281;28;20021;-81
2021/10/08 05:11:08;;;;;;;4.15;2.40;;;;;;;5.76;100.00;102303.94;5260846;28;20028;-81
2021/10/08 05:13:38;;;;;;;6.57;2.35;;;;;;;5.62;100.00;102308.06;5232947;28;20052;-81
2021/10/08 05:16:09;;;;;;;4.65;2.30;;;;;;;5.58;100.00;102303.72;5234579;28;20090;-81
2021/10/08 05:18:39;;;;;;;3.30;2.15;;;;;;;5.66;100.00;102307.25;5234172;28;20033;-81
2021/10/08 05:21:10;;;;;;;4.03;2.30;;;;;;;5.76;100.00;102309.13;5252995;28;20032;-81
2021/10/08 05:23:40;;;;;;;5.05;2.63;;;;;;;5.73;100.00;102306.50;5235314;28;20024;-81
2021/10/08 05:26:10;;;;;;;5.88;2.80;;;;;;;5.79;100.00;102310.06;5235193;28;20029;-81
2021/10/08 05:28:40;;;;;;;4.45;2.40;;;;;;;5.73;100.00;102306.50;5237888;28;20024;-81
2021/10/08 05:31:11;;;;;;;6.80;2.70;;;;;;;6.01;100.00;102305.94;5253396;28;20300;-80
2021/10/08 05:33:41;;;;;;;4.00;2.20;;;;;;;6.04;100.00;102311.16;5267574;28;20039;-81
2021/10/08 05:36:12;;;;;;;3.85;2.50;;;;;;;6.07;100.00;102313.81;5258063;28;20057;-81
2021/10/08 05:38:42;;;;;;;4.38;2.78;;;;;;;5.78;100.00;102320.38;5272469;28;20102;-81
2021/10/08 05:41:12;;;;;;;3.25;2.42;;;;;;;5.93;100.00;102310.19;5254612;28;20016;-81
2021/10/08 05:43:42;;;;;;;4.47;2.53;;;;;;;5.97;100.00;102317.16;5255191;28;20395;-81
2021/10/08 05:46:13;;;;;;;3.58;2.30;;;;;;;6.06;100.00;102323.31;5273277;28;20032;-81
2021/10/08 05:48:43;;;;;;;2.88;1.95;;;;;;;6.02;100.00;102323.25;5274137;28;20016;-81
2021/10/08 05:51:14;;;;;;;3.22;1.98;;;;;;;5.80;100.00;102318.69;5272635;28;20048;-81
2021/10/08 05:53:44;;;;;;;3.47;2.42;;;;;;;5.87;100.00;102312.72;5271069;28;20073;-81
2021/10/08 05:56:15;;;;;;;4.53;2.20;;;;;;;6.04;100.00;102319.84;5253810;28;20016;-81
2021/10/08 05:58:45;;;;;;;3.92;2.40;;;;;;;5.67;100.00;102328.03;5257371;28;20066;-81
2021/10/08 06:01:15;;;;;;;3.67;2.28;;;;;;;5.81;100.00;102333.41;5271300;28;20031;-81
2021/10/08 06:03:46;;;;;;;3.75;2.30;;;;;;;5.81;100.00;102328.22;5252578;28;20081;-81
2021/10/08 06:06:16;;;;;;;3.88;2.33;;;;;;;5.77;100.00;102329.00;5253474;28;20020;-81
2021/10/08 06:08:46;;;;;;;3.83;2.47;;;;;;;5.73;100.00;102332.44;5271558;28;20065;-81
2021/10/08 06:11:18;;;;;;;4.55;2.85;;;;;;;5.92;100.00;102340.47;5272431;28;20035;-81
2021/10/08 06:13:48;;;;;;;4.63;2.53;;;;;;;6.13;100.00;102338.13;5252679;28;20067;-81
2021/10/08 06:16:19;;;;;;;3.85;2.50;;;;;;;6.54;100.00;102328.09;5252499;28;20067;-81
2021/10/08 06:18:49;;;;;;;4.93;2.33;;;;;;;6.52;100.00;102325.50;5269723;28;20095;-81
2021/10/08 06:21:19;;;;;;;4.03;2.60;;;;;;;6.36;100.00;102330.53;5253310;28;20050;-81
2021/10/08 06:23:50;;;;;;;3.28;2.25;;;;;;;6.72;100.00;102330.84;5253488;28;20031;-81
2021/10/08 06:26:20;;;;;;;3.15;2.42;;;;;;;6.74;100.00;102331.78;5271646;28;20165;-81
2021/10/08 06:28:51;;;;;;;2.88;1.60;;;;;;;6.78;100.00;102333.53;5252058;28;20505;-81
2021/10/08 06:31:21;;;;;;;2.35;1.77;;;;;;;6.65;100.00;102336.88;5253431;28;20024;-81
2021/10/08 06:33:51;;;;;;;2.88;1.88;;;;;;;6.72;100.00;102341.25;5279039;28;20294;-82
2021/10/08 06:36:22;;;;;;;2.75;1.92;;;;;;;7.07;100.00;102348.47;5255371;28;20103;-82
2021/10/08 06:38:52;;;;;;;3.30;1.95;;;;;;;6.90;100.00;102341.44;5269565;28;20486;-82
2021/10/08 06:41:22;;;;;;;2.88;1.90;;;;;;;7.15;100.00;102340.72;5259821;28;20055;-82
2021/10/08 06:43:53;;;;;;;4.05;2.17;;;;;;;7.31;100.00;102336.50;5257804;28;20159;-82
2021/10/08 06:46:23;;;;;;;2.70;1.80;;;;;;;7.40;100.00;102339.16;5259781;28;20515;-82
2021/10/08 06:48:53;;;;;;;3.17;2.05;;;;;;;7.36;100.00;102337.38;5259579;28;20032;-82
2021/10/08 06:51:23;;;;;;;3.65;2.25;;;;;;;7.12;100.00;102341.56;5260055;28;20100;-82
2021/10/08 06:53:54;;;;;;;3.00;2.10;;;;;;;7.26;100.00;102342.53;5258239;28;20078;-82
2021/10/08 06:56:24;;;;;;;3.95;2.28;;;;;;;7.46;100.00;102338.28;5260484;28;20031;-82
2021/10/08 06:58:54;;;;;;;4.03;2.20;;;;;;;7.58;100.00;102344.47;5259111;28;20503;-82
2021/10/08 07:01:25;;;;;;;3.13;2.05;;;;;;;7.67;100.00;102344.47;5268689;28;20050;-82
2021/10/08 07:03:55;;;;;;;5.45;2.33;;;;;;;7.57;100.00;102354.84;5257822;28;20032;-82
2021/10/08 07:06:25;;;;;;;3.97;2.38;;;;;;;7.47;100.00;102356.53;5253495;28;20072;-82
2021/10/08 07:08:56;;;;;;;3.00;2.30;;;;;;;7.60;100.00;102355.75;5268678;28;20032;-82
2021/10/08 07:11:27;;;;;;;3.95;2.60;;;;;;;7.45;100.00;102358.25;5268602;28;20082;-82
2021/10/08 07:13:57;;;;;;;5.05;2.67;;;;;;;7.54;100.00;102367.84;5258923;28;20059;-82
2021/10/08 07:16:27;;;;;;;6.15;2.80;;;;;;;7.54;100.00;102362.63;5258784;28;20101;-82
2021/10/08 07:19:04;;;;;;;4.22;2.70;;;;;;;7.64;100.00;102364.41;5259041;28;20032;-82
2021/10/08 07:21:35;;;;;;;4.88;3.20;;;;;;;8.04;100.00;102375.00;5258759;28;20407;-82
2021/10/08 07:24:05;;;;;;;5.20;3.28;;;;;;;8.17;100.00;102368.97;5258277;28;20028;-82
2021/10/08 07:26:36;;;;;;;6.40;3.80;;;;;;;8.08;100.00;102368.91;5268411;28;20051;-82
2021/10/08 07:29:06;;;;;;;7.03;3.28;;;;;;;8.19;100.00;102372.47;5253438;28;20059;-82
2021/10/08 07:31:37;;;;;;;6.80;3.40;;;;;;;8.25;100.00;102375.09;5258756;28;20039;-82
2021/10/08 07:34:07;;;;;;;4.38;3.28;;;;;;;8.17;100.00;102368.97;5267158;28;20027;-82
2021/10/08 07:36:37;;;;;;;4.63;3.55;;;;;;;8.50;100.00;102368.19;5254182;28;20028;-82
2021/10/08 07:39:08;;;;;;;7.30;3.67;;;;;;;8.61;100.00;102362.16;5251381;28;20038;-81
2021/10/08 07:41:39;;;;;;;4.78;3.35;;;;;;;8.74;100.00;102363.03;5250978;28;20138;-82
2021/10/08 07:44:09;;;;;;;8.02;3.78;;;;;;;8.58;100.00;102364.72;5250222;28;20055;-82
2021/10/08 07:46:40;;;;;;;6.03;3.35;;;;;;;8.64;100.00;102369.06;5250418;28;20024;-81
2021/10/08 07:49:10;;;;;;;5.60;3.85;;;;;;;8.79;100.00;102358.66;5250017;28;20035;-82
2021/10/08 07:51:40;;;;;;;6.43;4.18;;;;;;;9.16;100.00;102366.47;5267404;28;20031;-82
2021/10/08 07:54:11;;;;;;;10.93;4.90;;;;;;;9.82;100.00;102359.31;5268187;28;20422;-82
2021/10/08 07:56:41;;;;;;;9.50;4.50;;;;;;;10.04;100.00;102355.81;5263489;28;20027;-82
2021/10/08 07:59:11;;;;;;;10.45;5.47;;;;;;;10.01;100.00;102379.28;5254157;28;20115;-82
2021/10/08 08:01:41;;;;;;;7.75;5.30;;;;;;;10.45;100.00;102373.84;5250106;28;20020;-82
2021/10/08 08:04:12;;;;;;;8.07;4.70;;;;;;;10.20;100.00;102373.09;5252068;28;20118;-82
2021/10/08 08:06:43;;;;;;;10.02;4.90;;;;;;;10.48;100.00;102374.69;5267326;28;20024;-82
2021/10/08 08:09:15;;;;;;;7.25;5.05;;;;;;;10.54;100.00;102372.03;5268399;28;20075;-82
2021/10/08 08:11:45;;;;;;;9.27;4.95;;;;;;;10.64;100.00;102381.56;5250362;28;20019;-82
2021/10/08 08:14:15;;;;;;;7.43;4.97;;;;;;;10.76;100.00;102380.59;5249841;28;20049;-82
2021/10/08 08:16:46;;;;;;;5.82;4.45;;;;;;;10.77;100.00;102375.38;5250105;28;20517;-82
2021/10/08 08:19:16;;;;;;;6.82;4.70;;;;;;;10.63;100.00;102381.56;5250101;28;20024;-82
2021/10/08 08:21:46;;;;;;;9.18;4.93;;;;;;;10.78;100.00;102384.06;5253814;28;20073;-82
2021/10/08 08:24:16;;;;;;;5.95;4.10;;;;;;;11.98;100.00;102379.38;5254653;28;20058;-83
2021/10/08 08:26:47;;;;;;;6.40;4.20;;;;;;;14.48;91.90;102366.16;5272351;28;20555;-82
2021/10/08 08:29:17;;;;;;;5.95;3.83;;;;;;;15.12;82.80;102372.47;5273286;28;20031;-82
2021/10/08 08:31:47;;;;;;;5.13;3.20;;;;;;;14.73;84.66;102372.59;5272253;28;20062;-83
2021/10/08 08:34:18;;;;;;;5.43;3.33;;;;;;;13.49;88.55;102373.50;5256063;28;20032;-83
2021/10/08 08:36:49;;;;;;;5.22;3.33;;;;;;;12.89;94.94;102379.81;5272083;28;20727;-83
2021/10/08 08:39:20;;;;;;;5.72;3.90;;;;;;;13.12;92.81;102373.31;5254123;28;20062;-82
2021/10/08 08:41:51;;;;;;;5.13;3.53;;;;;;;12.87;96.82;102375.47;5272592;28;20081;-82
2021/10/08 08:44:21;;;;;;;5.85;4.47;;;;;;;12.47;100.00;102375.19;5261692;28;20028;-82
2021/10/08 08:46:55;;;;;;;5.90;4.10;;;;;;;12.43;100.00;102378.75;5271845;28;20036;-83
2021/10/08 08:49:26;;;;;;;6.07;4.00;;;;;;;14.37;96.07;102362.91;5253664;28;20522;-83
2021/10/08 08:51:56;;;;;;;6.25;4.13;;;;;;;14.41;92.70;102361.97;5274059;28;20312;-82
2021/10/08 08:54:27;;;;;;;6.47;4.80;;;;;;;14.08;94.12;102360.88;5254471;28;20024;-82
2021/10/08 08:56:57;;;;;;;6.47;4.60;;;;;;;13.60;99.28;102371.53;5254156;28;20019;-83
2021/10/08 08:59:28;;;;;;;7.30;4.97;;;;;;;14.71;94.14;102355.97;5257943;28;20028;-83
2021/10/08 09:02:04;;;;;;;7.68;5.22;;;;;;;14.08;97.45;102360.88;5252835;28;20282;-82
2021/10/08 09:04:34;;;;;;;8.38;5.97;;;;;;;13.82;99.21;102362.34;5271113;28;20055;-82
2021/10/08 09:07:13;;;;;;;7.43;5.22;;;;;;;14.82;94.60;102355.66;5253448;28;20052;-82
2021/10/08 09:09:44;;;;;;;8.50;5.18;;;;;;;14.48;96.99;102358.28;5249426;28;20034;-82
2021/10/08 09:12:15;;;;;;;9.45;6.07;;;;;;;14.14;98.21;102365.16;5269477;28;20487;-82
2021/10/08 09:14:45;;;;;;;10.35;6.18;;;;;;;13.61;100.00;102358.34;5250555;28;20053;-83
2021/10/08 09:17:19;;;;;;;9.40;6.07;;;;;;;13.75;100.00;102361.59;5270789;28;20016;-82
2021/10/08 09:20:03;;;;;;;9.57;5.90;;;;;;;13.77;100.00;102348.44;5271086;28;20028;-82
2021/10/08 09:22:36;;;;;;;9.85;6.40;;;;;;;14.00;100.00;102346.16;5252637;28;20154;-82
2021/10/08 09:25:11;;;;;;;10.55;6.47;;;;;;;14.04;100.00;102353.97;5252757;28;20044;-82
2021/10/08 09:27:48;;;;;;;9.05;6.03;;;;;;;14.13;100.00;102348.53;5270044;28;20020;-83
2021/10/08 09:30:24;;;;;;;11.15;7.05;;;;;;;13.95;100.00;102340.16;5252867;28;20511;-83
2021/10/08 09:32:55;;;;;;;13.18;7.03;;;;;;;13.79;100.00;102351.88;5256207;28;20024;-82
2021/10/08 09:35:26;;;;;;;10.52;7.10;;;;;;;14.02;100.00;102349.63;5270874;28;20387;-82
2021/10/08 09:38:05;;;;;;;11.30;6.68;;;;;;;14.30;100.00;102343.78;5271522;28;20031;-82
2021/10/08 09:40:42;;;;;;;12.90;6.57;;;;;;;14.58;100.00;102346.66;5260742;28;20050;-83
2021/10/08 09:43:23;;;;;;;9.27;6.55;;;;;;;14.43;100.00;102341.75;5261373;28;20028;-82
2021/10/08 09:45:58;;;;;;;9.85;6.30;;;;;;;14.19;100.00;102352.78;5270763;28;20031;-82
2021/10/08 09:48:31;;;;;;;14.10;7.28;;;;;;;14.58;100.00;102341.38;5261155;28;20295;-83
2021/10/08 09:51:16;;;;;;;9.70;6.80;;;;;;;14.65;100.00;102345.59;5278244;28;20031;-83
2021/10/08 09:53:50;;;;;;;10.90;7.03;;;;;;;14.51;100.00;102339.78;5260194;28;20028;-82
2021/10/08 09:56:42;;;;;;;11.07;6.93;;;;;;;14.47;100.00;102351.28;5278350;28;20024;-83
2021/10/08 09:59:13;;;;;;;12.13;7.53;;;;;;;14.01;100.00;102353.16;5252452;28;20024;-82
2021/10/08 10:01:45;;;;;;;12.68;8.07;;;;;;;13.76;100.00;102347.53;5260991;28;20020;-82
2021/10/08 10:04:16;;;;;;;12.68;7.85;;;;;;;14.28;100.00;102337.69;5257967;28;20522;-82
2021/10/08 10:06:50;;;;;;;12.68;7.80;;;;;;;14.18;100.00;102345.81;5254265;28;20134;-83
2021/10/08 10:09:21;;;;;;;12.05;8.13;;;;;;;14.95;100.00;102349.19;5271163;28;20039;-82
2021/10/08 10:11:51;;;;;;;12.93;8.18;;;;;;;15.06;100.00;102336.66;5259558;28;20020;-82
2021/10/08 10:14:22;;;;;;;15.10;8.35;;;;;;;15.40;100.00;102345.38;5253289;28;20016;-82
2021/10/08 10:16:52;;;;;;;14.15;9.23;;;;;;;15.45;100.00;102345.25;5270024;28;20032;-82
2021/10/08 10:19:24;;;;;;;12.23;8.43;;;;;;;15.51;100.00;102350.38;5273697;28;20020;-83
2021/10/08 10:21:55;;;;;;;14.43;8.80;;;;;;;15.64;98.58;102339.44;5261139;28;20119;-83
2021/10/08 10:24:27;;;;;;;11.95;8.40;;;;;;;15.67;100.00;102346.41;5259618;28;20020;-83
2021/10/08 10:26:58;;;;;;;14.38;9.43;;;;;;;15.80;100.00;102347.78;5270629;28;20028;-83
2021/10/08 10:29:28;;;;;;;15.70;10.95;;;;;;;15.69;100.00;102342.81;5258902;28;20026;-83
2021/10/08 10:31:58;;;;;;;18.08;10.98;;;;;;;16.24;99.87;102340.28;5257594;28;20024;-82
2021/10/08 10:34:33;;;;;;;18.77;11.75;;;;;;;16.01;96.64;102341.91;5237371;28;20087;-82
2021/10/08 10:37:05;;;;;;;20.05;12.27;;;;;;;16.03;96.54;102335.66;5255259;28;20081;-83
2021/10/08 10:39:37;;;;;;;20.95;13.73;;;;;;;15.99;96.87;102328.75;5262211;28;20020;-83
2021/10/08 10:42:13;;;;;;;25.08;14.60;;;;;;;15.84;97.47;102331.84;5241657;28;20046;-81
2021/10/08 10:45:14;;;;;;;22.80;14.10;;;;;;;15.91;98.37;102338.63;5253617;28;20039;-83
2021/10/08 10:47:47;;;;;;;21.90;14.02;;;;;;;15.88;98.21;102330.81;5244653;28;20024;-83
2021/10/08 10:50:28;;;;;;;22.08;14.35;;;;;;;16.24;97.22;102328.88;5241052;28;20016;-83
2021/10/08 10:52:59;;;;;;;21.25;14.02;;;;;;;16.35;97.87;102329.44;5242049;28;20024;-83
2021/10/08 10:55:34;;;;;;;24.42;15.75;;;;;;;16.11;97.31;102328.38;5258530;28;20031;-82
2021/10/08 10:58:10;;;;;;;21.70;15.27;;;;;;;16.07;96.78;102325.88;5233212;28;20016;-83
2021/10/08 11:00:45;;;;;;;26.98;15.25;;;;;;;16.14;95.38;102319.50;5257195;28;20024;-83
2021/10/08 11:03:22;;;;;;;26.00;16.08;;;;;;;16.01;97.27;102332.19;5251383;28;20024;-83
2021/10/08 11:06:10;;;;;;;19.83;14.05;;;;;;;16.15;95.22;102324.75;5234920;28;20598;-83
2021/10/08 11:09:09;;;;;;;21.55;13.98;;;;;;;16.46;94.70;102320.28;5258254;28;20073;-83
2021/10/08 11:11:40;;;;;;;24.88;14.85;;;;;;;16.24;94.98;102320.97;5241476;28;20391;-83
2021/10/08 11:14:20;;;;;;;25.02;15.60;;;;;;;16.26;97.37;102313.84;5236716;28;20028;-82
2021/10/08 11:16:51;;;;;;;21.80;14.15;;;;;;;16.10;95.89;102310.84;5252944;28;20051;-83
2021/10/08 11:19:40;;;;;;;23.23;14.77;;;;;;;16.09;98.47;102314.38;5240179;28;20020;-83
2021/10/08 11:22:11;;;;;;;20.85;14.10;;;;;;;16.20;98.01;102311.41;5258028;28;20020;-83
2021/10/08 11:24:41;;;;;;;20.65;14.63;;;;;;;16.31;98.14;102302.25;5238980;28;20031;-83
2021/10/08 11:27:13;;;;;;;18.17;12.70;;;;;;;16.56;95.76;102302.34;5248154;28;20111;-82
2021/10/08 11:29:43;;;;;;;19.52;13.90;;;;;;;16.52;94.41;102298.94;5254029;28;20021;-83
2021/10/08 11:32:14;;;;;;;19.73;13.25;;;;;;;16.55;95.81;102301.47;5245022;28;20024;-84
2021/10/08 11:34:52;;;;;;;23.50;14.20;;;;;;;16.37;93.89;102304.72;5269332;28;20020;-83
2021/10/08 11:37:29;;;;;;;22.40;12.98;;;;;;;16.47;92.84;102300.00;5251870;28;20103;-84
2021/10/08 11:40:03;;;;;;;19.63;13.02;;;;;;;16.14;92.10;102309.81;5266884;28;20495;-82
2021/10/08 11:42:40;;;;;;;20.60;12.32;;;;;;;16.19;91.55;102305.25;5247370;28;20073;-83